Time,TemperatureF,DewpointF,PressureIn,WindDirection,WindDirectionDegrees,WindSpeedMPH,WindSpeedGustMPH,Humidity,HourlyPrecipIn,Conditions,Clouds,dailyrainin,SoftwareType,DateUTC
2013-03-31 00:00:00,59.9,57.3,30.11,West,265,0.0,0.0,91,0.00,,CLR,0.00,VWS V14.01,2013-03-31 04:00:00,
2013-03-31 00:05:00,59.8,57.2,30.11,West,265,0.0,0.0,91,0.00,,CLR,0.00,VWS V14.01,2013-03-31 04:05:00,
2013-03-31 00:10:00,59.8,57.2,30.11,West,265,0.0,0.0,91,0.00,,CLR,0.00,VWS V14.01,2013-03-31 04:10:00,
2013-03-31 00:15:00,59.8,57.2,30.10,West,265,0.0,0.0,91,0.00,,CLR,0.00,VWS V14.01,2013-03-31 04:15:00,
2013-03-31 00:20:00,59.5,56.9,30.10,West,265,0.0,0.0,91,0.00,,CLR,0.00,VWS V14.01,2013-03-31 04:20:00,
2013-03-31 00:25:00,59.3,56.7,30.10,West,265,0.0,0.0,91,0.00,,CLR,0.00,VWS V14.01,2013-03-31 04:25:00,
2013-03-31 00:30:00,59.2,56.6,30.10,West,265,0.0,0.0,91,0.00,,CLR,0.00,VWS V14.01,2013-03-31 04:30:00,
2013-03-31 00:35:00,59.0,56.4,30.10,West,265,0.0,0.0,91,0.00,,CLR,0.00,VWS V14.01,2013-03-31 04:35:00,
2013-03-31 00:41:00,58.9,56.3,30.10,West,265,0.0,0.0,91,0.00,,CLR,0.00,VWS V14.01,2013-03-31 04:41:00,
2013-03-31 00:46:00,58.7,56.1,30.10,West,265,0.0,0.0,91,0.00,,CLR,0.00,VWS V14.01,2013-03-31 04:46:00,
2013-03-31 00:51:00,58.7,56.1,30.10,West,265,0.0,0.0,91,0.00,,CLR,0.00,VWS V14.01,2013-03-31 04:51:00,
2013-03-31 00:56:00,58.7,56.1,30.10,West,265,0.0,0.0,91,0.00,,CLR,0.00,VWS V14.01,2013-03-31 04:56:00,
2013-03-31 01:00:00,59.9,57.3,30.11,West,265,0.0,0.0,91,0.00,,CLR,0.00,VWS V14.01,2013-03-31 05:00:00,
2013-03-31 01:01:00,58.7,56.1,30.09,West,265,0.0,0.0,91,0.00,,CLR,0.00,VWS V14.01,2013-03-31 05:01:00,
2013-03-31 01:06:00,58.6,56.0,30.09,West,265,0.0,0.0,91,0.00,,CLR,0.00,VWS V14.01,2013-03-31 05:06:00,
2013-03-31 01:11:00,58.6,56.0,30.09,West,265,0.0,0.0,91,0.00,,CLR,0.00,VWS V14.01,2013-03-31 05:11:00,
2013-03-31 01:16:00,58.6,56.0,30.09,West,265,0.0,0.0,91,0.00,,CLR,0.00,VWS V14.01,2013-03-31 05:16:00,
2013-03-31 01:21:00,58.4,55.8,30.09,West,265,0.0,0.0,91,0.00,,CLR,0.00,VWS V14.01,2013-03-31 05:21:00,
2013-03-31 01:26:00,58.4,55.8,30.09,West,265,0.0,0.0,91,0.00,,CLR,0.00,VWS V14.01,2013-03-31 05:26:00,
2013-03-31 01:30:00,59.2,56.6,30.10,West,265,0.0,0.0,91,0.00,,CLR,0.00,VWS V14.01,2013-03-31 05:30:00,
2013-03-31 01:31:00,58.4,55.8,30.09,West,265,0.0,0.0,91,0.00,,CLR,0.00,VWS V14.01,2013-03-31 05:31:00,
2013-03-31 01:37:00,58.4,55.8,30.09,West,265,0.0,0.0,91,0.00,,CLR,0.00,VWS V14.01,2013-03-31 05:37:00,
2013-03-31 01:42:00,58.3,55.7,30.09,West,265,0.0,0.0,91,0.00,,CLR,0.00,VWS V14.01,2013-03-31 05:42:00,
2013-03-31 01:47:00,58.3,55.7,30.08,West,265,0.0,0.0,91,0.00,,CLR,0.00,VWS V14.01,2013-03-31 05:47:00,
2013-03-31 01:52:00,58.1,55.5,30.08,West,265,0.0,0.0,91,0.00,,CLR,0.00,VWS V14.01,2013-03-31 05:52:00,
2013-03-31 01:57:00,58.3,55.7,30.08,West,265,0.0,0.0,91,0.00,,CLR,0.00,VWS V14.01,2013-03-31 05:57:00,
2013-03-31 02:00:00,58.7,56.1,30.09,West,265,0.0,0.0,91,0.00,,CLR,0.00,VWS V14.01,2013-03-31 06:00:00,
2013-03-31 02:02:00,58.1,55.2,30.08,West,263,0.0,0.0,90,0.00,,CLR,0.00,VWS V14.01,2013-03-31 06:02:00,
2013-03-31 02:07:00,58.1,55.2,30.08,West,263,0.0,0.0,90,0.00,,CLR,0.00,VWS V14.01,2013-03-31 06:07:00,
2013-03-31 02:12:00,58.3,55.4,30.08,West,263,0.0,0.0,90,0.00,,CLR,0.00,VWS V14.01,2013-03-31 06:12:00,
2013-03-31 02:17:00,58.4,55.5,30.08,West,263,0.0,0.0,90,0.00,,CLR,0.00,VWS V14.01,2013-03-31 06:17:00,
2013-03-31 02:22:00,58.6,55.7,30.08,West,263,0.0,0.0,90,0.00,,CLR,0.00,VWS V14.01,2013-03-31 06:22:00,
2013-03-31 02:27:00,58.6,55.7,30.08,WSW,246,0.0,0.0,90,0.00,,CLR,0.00,VWS V14.01,2013-03-31 06:27:00,
2013-03-31 02:30:00,58.4,55.8,30.09,West,265,0.0,0.0,91,0.00,,CLR,0.00,VWS V14.01,2013-03-31 06:30:00,
2013-03-31 02:32:00,58.7,55.8,30.08,WSW,246,0.0,0.0,90,0.00,,CLR,0.00,VWS V14.01,2013-03-31 06:32:00,
2013-03-31 02:37:00,58.7,55.8,30.08,WSW,241,0.0,0.0,90,0.00,,CLR,0.00,VWS V14.01,2013-03-31 06:37:00,
2013-03-31 02:42:00,58.9,56.0,30.08,WSW,239,0.0,0.0,90,0.00,,CLR,0.00,VWS V14.01,2013-03-31 06:42:00,
2013-03-31 02:47:00,58.9,56.0,30.08,WSW,239,0.0,0.0,90,0.00,,CLR,0.00,VWS V14.01,2013-03-31 06:47:00,
2013-03-31 02:52:00,58.9,56.0,30.08,WSW,239,0.0,0.0,90,0.00,,CLR,0.00,VWS V14.01,2013-03-31 06:52:00,
2013-03-31 02:57:00,58.9,56.0,30.08,WSW,239,0.0,0.0,90,0.00,,CLR,0.00,VWS V14.01,2013-03-31 06:57:00,
2013-03-31 03:00:00,58.3,55.4,30.08,West,263,0.0,0.0,90,0.00,,CLR,0.00,VWS V14.01,2013-03-31 07:00:00,
2013-03-31 03:02:00,58.9,56.0,30.08,WSW,239,0.0,0.0,90,0.00,,CLR,0.00,VWS V14.01,2013-03-31 07:02:00,
2013-03-31 03:08:00,58.9,56.0,30.08,WSW,239,0.0,0.0,90,0.00,,CLR,0.00,VWS V14.01,2013-03-31 07:08:00,
2013-03-31 03:13:00,58.9,56.0,30.08,SW,219,0.0,0.0,90,0.00,,CLR,0.00,VWS V14.01,2013-03-31 07:13:00,
2013-03-31 03:18:00,59.0,56.1,30.07,SW,219,0.0,0.0,90,0.00,,CLR,0.00,VWS V14.01,2013-03-31 07:18:00,
2013-03-31 03:23:00,59.2,56.3,30.07,SW,219,0.0,0.0,90,0.00,,CLR,0.00,VWS V14.01,2013-03-31 07:23:00,
2013-03-31 03:28:00,59.2,56.3,30.07,SW,219,0.0,0.0,90,0.00,,CLR,0.00,VWS V14.01,2013-03-31 07:28:00,
2013-03-31 03:30:00,58.7,55.8,30.08,WSW,246,0.0,0.0,90,0.00,,CLR,0.00,VWS V14.01,2013-03-31 07:30:00,
2013-03-31 03:33:00,59.3,56.1,30.06,SW,219,0.0,0.0,89,0.00,,CLR,0.00,VWS V14.01,2013-03-31 07:33:00,
2013-03-31 03:38:00,59.5,56.3,30.06,SW,219,0.0,1.0,89,0.00,,CLR,0.00,VWS V14.01,2013-03-31 07:38:00,
2013-03-31 03:43:00,59.5,56.0,30.06,SW,217,0.0,1.0,88,0.00,,CLR,0.00,VWS V14.01,2013-03-31 07:43:00,
2013-03-31 03:48:00,59.6,55.7,30.05,SW,216,0.0,1.0,87,0.00,,CLR,0.00,VWS V14.01,2013-03-31 07:48:00,
2013-03-31 03:53:00,59.8,55.6,30.05,SW,216,0.0,1.0,86,0.00,,CLR,0.00,VWS V14.01,2013-03-31 07:53:00,
2013-03-31 03:58:00,59.9,55.4,30.05,SW,216,0.0,1.0,85,0.00,,CLR,0.00,VWS V14.01,2013-03-31 07:58:00,
2013-03-31 04:00:00,58.9,56.0,30.08,WSW,239,0.0,0.0,90,0.00,,CLR,0.00,VWS V14.01,2013-03-31 08:00:00,
2013-03-31 04:03:00,59.9,55.1,30.06,SW,216,0.0,0.0,84,0.00,,CLR,0.00,VWS V14.01,2013-03-31 08:03:00,
2013-03-31 04:08:00,59.9,55.1,30.06,SW,216,0.0,0.0,84,0.00,,CLR,0.00,VWS V14.01,2013-03-31 08:08:00,
2013-03-31 04:13:00,60.1,54.9,30.06,SW,216,0.0,0.0,83,0.00,,CLR,0.00,VWS V14.01,2013-03-31 08:13:00,
2013-03-31 04:18:00,60.1,54.9,30.05,SW,216,0.0,0.0,83,0.00,,CLR,0.00,VWS V14.01,2013-03-31 08:18:00,
2013-03-31 04:23:00,60.1,54.9,30.05,SW,216,0.0,0.0,83,0.00,,CLR,0.00,VWS V14.01,2013-03-31 08:23:00,
2013-03-31 04:28:00,60.4,55.2,30.05,SSW,208,0.0,3.0,83,0.00,,CLR,0.00,VWS V14.01,2013-03-31 08:28:00,
2013-03-31 04:30:00,59.2,56.3,30.06,SW,219,0.0,0.0,90,0.00,,CLR,0.00,VWS V14.01,2013-03-31 08:30:00,
2013-03-31 04:33:00,60.4,54.9,30.05,SSW,205,0.0,0.0,82,0.00,,CLR,0.00,VWS V14.01,2013-03-31 08:33:00,
2013-03-31 04:38:00,60.4,54.9,30.05,SSW,205,0.0,0.0,82,0.00,,CLR,0.00,VWS V14.01,2013-03-31 08:38:00,
2013-03-31 04:43:00,60.4,54.9,30.05,SSW,205,0.0,0.0,82,0.00,,CLR,0.00,VWS V14.01,2013-03-31 08:43:00,
2013-03-31 04:48:00,60.4,54.9,30.05,SSW,205,0.0,0.0,82,0.00,,CLR,0.00,VWS V14.01,2013-03-31 08:48:00,
2013-03-31 04:53:00,60.2,54.7,30.05,SSW,205,0.0,0.0,82,0.00,,CLR,0.00,VWS V14.01,2013-03-31 08:53:00,
2013-03-31 04:58:00,60.1,54.6,30.05,SSW,205,0.0,0.0,82,0.00,,CLR,0.00,VWS V14.01,2013-03-31 08:58:00,
2013-03-31 05:00:00,59.9,55.4,30.06,SW,216,0.0,1.0,85,0.00,,CLR,0.00,VWS V14.01,2013-03-31 09:00:00,
2013-03-31 05:03:00,59.9,54.4,30.04,SSW,205,0.0,0.0,82,0.00,,CLR,0.00,VWS V14.01,2013-03-31 09:03:00,
2013-03-31 05:08:00,59.9,54.4,30.04,SSW,205,0.0,0.0,82,0.00,,CLR,0.00,VWS V14.01,2013-03-31 09:08:00,
2013-03-31 05:13:00,59.8,54.6,30.04,SSW,205,0.0,0.0,83,0.00,,CLR,0.00,VWS V14.01,2013-03-31 09:13:00,
2013-03-31 05:18:00,59.8,54.6,30.05,SSW,205,0.0,0.0,83,0.00,,CLR,0.00,VWS V14.01,2013-03-31 09:18:00,
2013-03-31 05:24:00,59.8,54.6,30.05,SSW,203,0.0,0.0,83,0.00,,CLR,0.00,VWS V14.01,2013-03-31 09:24:00,
2013-03-31 05:29:00,59.9,54.7,30.05,SSW,203,0.0,0.0,83,0.00,,CLR,0.00,VWS V14.01,2013-03-31 09:29:00,
2013-03-31 05:30:00,60.4,54.9,30.05,SSW,205,0.0,3.0,82,0.00,,CLR,0.00,VWS V14.01,2013-03-31 09:30:00,
2013-03-31 05:34:00,59.9,54.7,30.05,SSW,203,0.0,0.0,83,0.00,,CLR,0.00,VWS V14.01,2013-03-31 09:34:00,
2013-03-31 05:39:00,59.9,54.7,30.05,SSW,203,0.0,0.0,83,0.00,,CLR,0.00,VWS V14.01,2013-03-31 09:39:00,
2013-03-31 05:44:00,59.8,54.6,30.05,SSW,203,0.0,0.0,83,0.00,,CLR,0.00,VWS V14.01,2013-03-31 09:44:00,
2013-03-31 05:49:00,59.8,54.6,30.05,SSW,203,0.0,0.0,83,0.00,,CLR,0.00,VWS V14.01,2013-03-31 09:49:00,
2013-03-31 05:54:00,59.6,54.4,30.05,SSW,203,0.0,0.0,83,0.00,,CLR,0.00,VWS V14.01,2013-03-31 09:54:00,
2013-03-31 05:59:00,59.5,54.3,30.05,SSW,203,0.0,0.0,83,0.00,,CLR,0.00,VWS V14.01,2013-03-31 09:59:00,
2013-03-31 06:00:00,60.1,54.6,30.04,SSW,205,0.0,0.0,82,0.00,,CLR,0.00,VWS V14.01,2013-03-31 10:00:00,
2013-03-31 06:04:00,59.2,54.4,30.06,SSW,203,0.0,0.0,84,0.00,,CLR,0.00,VWS V14.01,2013-03-31 10:04:00,
2013-03-31 06:09:00,59.0,54.2,30.06,SSW,203,0.0,0.0,84,0.00,,CLR,0.00,VWS V14.01,2013-03-31 10:09:00,
2013-03-31 06:14:00,58.7,53.9,30.06,SSW,203,0.0,0.0,84,0.00,,CLR,0.00,VWS V14.01,2013-03-31 10:14:00,
2013-03-31 06:19:00,58.7,53.9,30.06,SSW,203,0.0,0.0,84,0.00,,CLR,0.00,VWS V14.01,2013-03-31 10:19:00,
2013-03-31 06:24:00,58.7,53.9,30.06,SSW,203,0.0,0.0,84,0.00,,CLR,0.00,VWS V14.01,2013-03-31 10:24:00,
2013-03-31 06:29:00,58.6,53.8,30.06,SSW,203,0.0,0.0,84,0.00,,CLR,0.00,VWS V14.01,2013-03-31 10:29:00,
2013-03-31 06:30:00,59.9,54.7,30.05,SSW,203,0.0,0.0,83,0.00,,CLR,0.00,VWS V14.01,2013-03-31 10:30:00,
2013-03-31 06:34:00,58.4,53.6,30.07,SSW,203,0.0,0.0,84,0.00,,CLR,0.00,VWS V14.01,2013-03-31 10:34:00,
2013-03-31 06:39:00,58.4,53.6,30.07,SSW,203,0.0,0.0,84,0.00,,CLR,0.00,VWS V14.01,2013-03-31 10:39:00,
2013-03-31 06:44:00,58.3,53.8,30.07,SSW,203,0.0,0.0,85,0.00,,CLR,0.00,VWS V14.01,2013-03-31 10:44:00,
2013-03-31 06:49:00,58.3,53.8,30.07,SSW,203,0.0,0.0,85,0.00,,CLR,0.00,VWS V14.01,2013-03-31 10:49:00,
2013-03-31 06:54:00,58.1,53.6,30.07,SSW,203,0.0,0.0,85,0.00,,CLR,0.00,VWS V14.01,2013-03-31 10:54:00,
2013-03-31 06:59:00,58.1,53.6,30.07,SSW,203,0.0,0.0,85,0.00,,CLR,0.00,VWS V14.01,2013-03-31 10:59:00,
2013-03-31 07:00:00,59.5,54.3,30.06,SSW,203,0.0,0.0,83,0.00,,CLR,0.00,VWS V14.01,2013-03-31 11:00:00,
2013-03-31 07:04:00,58.0,53.8,30.07,SSW,203,0.0,0.0,86,0.00,,CLR,0.00,VWS V14.01,2013-03-31 11:04:00,
2013-03-31 07:09:00,58.0,53.8,30.07,SSW,203,0.0,0.0,86,0.00,,CLR,0.00,VWS V14.01,2013-03-31 11:09:00,
2013-03-31 07:14:00,57.8,53.7,30.07,SSW,203,0.0,0.0,86,0.00,,CLR,0.00,VWS V14.01,2013-03-31 11:14:00,
2013-03-31 07:19:00,57.8,53.7,30.08,SSW,203,0.0,0.0,86,0.00,,CLR,0.00,VWS V14.01,2013-03-31 11:19:00,
2013-03-31 07:24:00,57.8,53.7,30.08,SSW,203,0.0,0.0,86,0.00,,CLR,0.00,VWS V14.01,2013-03-31 11:24:00,
2013-03-31 07:29:00,57.8,53.3,30.08,SSW,203,0.0,0.0,85,0.00,,CLR,0.00,VWS V14.01,2013-03-31 11:29:00,
2013-03-31 07:30:00,58.6,53.8,30.07,SSW,203,0.0,0.0,84,0.00,,CLR,0.00,VWS V14.01,2013-03-31 11:30:00,
2013-03-31 07:34:00,58.0,53.5,30.08,SSW,203,0.0,0.0,85,0.00,,CLR,0.00,VWS V14.01,2013-03-31 11:34:00,
2013-03-31 07:39:00,58.0,53.5,30.08,SSW,203,0.0,0.0,85,0.00,,CLR,0.00,VWS V14.01,2013-03-31 11:39:00,
2013-03-31 07:44:00,58.1,53.3,30.09,SSW,203,0.0,0.0,84,0.00,,CLR,0.00,VWS V14.01,2013-03-31 11:44:00,
2013-03-31 07:49:00,58.3,53.5,30.09,SSW,203,0.0,0.0,84,0.00,,CLR,0.00,VWS V14.01,2013-03-31 11:49:00,
2013-03-31 07:54:00,58.3,53.5,30.09,SSW,203,0.0,0.0,84,0.00,,CLR,0.00,VWS V14.01,2013-03-31 11:54:00,
2013-03-31 07:59:00,58.4,53.6,30.09,SSW,203,0.0,0.0,84,0.00,,CLR,0.00,VWS V14.01,2013-03-31 11:59:00,
2013-03-31 08:00:00,58.1,53.6,30.07,SSW,203,0.0,0.0,85,0.00,,CLR,0.00,VWS V14.01,2013-03-31 12:00:00,
2013-03-31 08:04:00,58.4,53.6,30.09,SSW,203,0.0,0.0,84,0.00,,CLR,0.00,VWS V14.01,2013-03-31 12:04:00,
2013-03-31 08:09:00,58.6,53.8,30.09,South,181,0.0,1.0,84,0.00,,CLR,0.00,VWS V14.01,2013-03-31 12:09:00,
2013-03-31 08:15:00,58.9,54.1,30.09,South,179,0.0,1.0,84,0.00,,CLR,0.00,VWS V14.01,2013-03-31 12:15:00,
2013-03-31 08:20:00,59.5,54.3,30.09,South,179,0.0,1.0,83,0.00,,CLR,0.00,VWS V14.01,2013-03-31 12:20:00,
2013-03-31 08:25:00,60.1,54.6,30.09,South,179,0.0,1.0,82,0.00,,CLR,0.00,VWS V14.01,2013-03-31 12:25:00,
2013-03-31 08:30:00,60.9,54.7,30.09,South,179,0.0,1.0,80,0.00,,CLR,0.00,VWS V14.01,2013-03-31 12:30:00,
2013-03-31 08:35:00,61.5,54.6,30.09,South,179,0.0,0.0,78,0.00,,CLR,0.00,VWS V14.01,2013-03-31 12:35:00,
2013-03-31 08:40:00,62.1,54.8,30.09,South,179,0.0,0.0,77,0.00,,CLR,0.00,VWS V14.01,2013-03-31 12:40:00,
2013-03-31 08:45:00,62.9,55.2,30.09,South,179,0.0,0.0,76,0.00,,CLR,0.00,VWS V14.01,2013-03-31 12:45:00,
2013-03-31 08:50:00,63.5,55.1,30.09,South,176,0.0,0.0,74,0.00,,CLR,0.00,VWS V14.01,2013-03-31 12:50:00,
2013-03-31 08:55:00,64.2,55.0,30.09,South,176,0.0,0.0,72,0.00,,CLR,0.00,VWS V14.01,2013-03-31 12:55:00,
2013-03-31 09:00:00,64.5,55.3,30.09,SSE,167,0.0,3.0,72,0.00,,CLR,0.00,VWS V14.01,2013-03-31 13:00:00,
2013-03-31 09:05:00,64.8,55.6,30.09,South,169,0.0,7.0,72,0.00,,CLR,0.00,VWS V14.01,2013-03-31 13:05:00,
2013-03-31 09:10:00,65.2,55.6,30.09,SSE,164,2.0,7.0,71,0.00,,CLR,0.00,VWS V14.01,2013-03-31 13:10:00,
2013-03-31 09:15:00,65.3,55.7,30.09,SSE,160,2.0,7.0,71,0.00,,CLR,0.00,VWS V14.01,2013-03-31 13:15:00,
2013-03-31 09:20:00,65.8,55.8,30.09,SSE,152,0.0,7.0,70,0.00,,CLR,0.00,VWS V14.01,2013-03-31 13:20:00,
2013-03-31 09:25:00,66.4,55.9,30.09,SE,128,0.0,7.0,69,0.00,,CLR,0.00,VWS V14.01,2013-03-31 13:25:00,
2013-03-31 09:30:00,67.1,56.2,30.09,East,97,1.0,7.0,68,0.00,,CLR,0.00,VWS V14.01,2013-03-31 13:30:00,
2013-03-31 09:35:00,67.6,56.3,30.09,SSE,167,3.0,7.0,67,0.00,,CLR,0.00,VWS V14.01,2013-03-31 13:35:00,
2013-03-31 09:40:00,68.3,56.5,30.09,South,171,0.0,7.0,66,0.00,,CLR,0.00,VWS V14.01,2013-03-31 13:40:00,
2013-03-31 09:45:00,68.9,56.7,30.09,SSW,208,0.0,7.0,65,0.00,,CLR,0.00,VWS V14.01,2013-03-31 13:45:00,
2013-03-31 09:50:00,69.4,56.7,30.09,SSW,200,0.0,7.0,64,0.00,,CLR,0.00,VWS V14.01,2013-03-31 13:50:00,
2013-03-31 09:55:00,69.6,56.5,30.09,SSE,161,2.0,7.0,63,0.00,,CLR,0.00,VWS V14.01,2013-03-31 13:55:00,
2013-03-31 10:00:00,69.4,56.3,30.09,SSW,212,0.0,0.0,63,0.00,,CLR,0.00,VWS V14.01,2013-03-31 14:00:00,
2013-03-31 10:05:00,69.8,56.2,30.09,SSW,209,3.0,8.0,62,0.00,,CLR,0.00,VWS V14.01,2013-03-31 14:05:00,
2013-03-31 10:10:00,70.6,56.5,30.09,South,172,0.0,8.0,61,0.00,,CLR,0.00,VWS V14.01,2013-03-31 14:10:00,
2013-03-31 10:15:00,71.1,56.1,30.09,SSW,196,0.0,8.0,59,0.00,,CLR,0.00,VWS V14.01,2013-03-31 14:15:00,
2013-03-31 10:20:00,71.3,55.3,30.09,SSW,199,3.0,11.0,57,0.00,,CLR,0.00,VWS V14.01,2013-03-31 14:20:00,
2013-03-31 10:25:00,71.3,55.8,30.09,SW,216,2.0,11.0,58,0.00,,CLR,0.00,VWS V14.01,2013-03-31 14:25:00,
2013-03-31 10:30:00,71.8,56.2,30.09,ESE,116,0.0,1.0,58,0.00,,CLR,0.00,VWS V14.01,2013-03-31 14:30:00,
2013-03-31 10:35:00,72.0,56.0,30.09,SSE,150,0.0,10.0,57,0.00,,CLR,0.00,VWS V14.01,2013-03-31 14:35:00,
2013-03-31 10:40:00,72.1,56.0,30.09,East,100,0.0,10.0,57,0.00,,CLR,0.00,VWS V14.01,2013-03-31 14:40:00,
2013-03-31 10:45:00,72.3,56.7,30.09,South,172,0.0,10.0,58,0.00,,CLR,0.00,VWS V14.01,2013-03-31 14:45:00,
2013-03-31 10:50:00,72.7,56.1,30.09,SSE,160,0.0,10.0,56,0.00,,CLR,0.00,VWS V14.01,2013-03-31 14:50:00,
2013-03-31 10:55:00,72.7,56.1,30.09,SSE,167,0.0,10.0,56,0.00,,CLR,0.00,VWS V14.01,2013-03-31 14:55:00,
2013-03-31 11:00:00,73.0,56.4,30.09,SSE,151,0.0,0.0,56,0.00,,CLR,0.00,VWS V14.01,2013-03-31 15:00:00,
2013-03-31 11:05:00,73.2,55.6,30.09,SSW,195,1.0,8.0,54,0.00,,CLR,0.00,VWS V14.01,2013-03-31 15:05:00,
2013-03-31 11:11:00,73.2,56.6,30.09,SSE,152,3.0,10.0,56,0.00,,CLR,0.00,VWS V14.01,2013-03-31 15:11:00,
2013-03-31 11:16:00,73.5,55.9,30.09,SSW,196,0.0,11.0,54,0.00,,CLR,0.00,VWS V14.01,2013-03-31 15:16:00,
2013-03-31 11:21:00,74.0,55.3,30.09,WSW,253,0.0,11.0,52,0.00,,CLR,0.00,VWS V14.01,2013-03-31 15:21:00,
2013-03-31 11:26:00,73.7,55.0,30.09,SSW,203,6.0,13.0,52,0.00,,CLR,0.00,VWS V14.01,2013-03-31 15:26:00,
2013-03-31 11:30:00,71.6,56.1,30.09,ESE,116,1.0,11.0,58,0.00,,CLR,0.00,VWS V14.01,2013-03-31 15:30:00,
2013-03-31 11:31:00,73.5,54.8,30.09,SW,226,0.0,7.0,52,0.00,,CLR,0.00,VWS V14.01,2013-03-31 15:31:00,
2013-03-31 11:36:00,74.2,55.5,30.09,SW,216,0.0,9.0,52,0.00,,CLR,0.00,VWS V14.01,2013-03-31 15:36:00,
2013-03-31 11:41:00,74.0,55.8,30.09,South,169,1.0,10.0,53,0.00,,CLR,0.00,VWS V14.01,2013-03-31 15:41:00,
2013-03-31 11:46:00,73.3,55.7,30.09,SSW,193,5.0,11.0,54,0.00,,CLR,0.00,VWS V14.01,2013-03-31 15:46:00,
2013-03-31 11:51:00,73.5,55.9,30.09,WSW,248,0.0,11.0,54,0.00,,CLR,0.00,VWS V14.01,2013-03-31 15:51:00,
2013-03-31 11:56:00,73.7,56.0,30.09,SSW,213,2.0,12.0,54,0.00,,CLR,0.00,VWS V14.01,2013-03-31 15:56:00,
2013-03-31 12:00:00,73.0,56.4,30.09,SSE,151,0.0,10.0,56,0.00,,CLR,0.00,VWS V14.01,2013-03-31 16:00:00,
2013-03-31 12:02:00,74.2,54.9,30.08,SSW,213,3.0,6.0,51,0.00,,CLR,0.00,VWS V14.01,2013-03-31 16:02:00,
2013-03-31 12:07:00,74.2,55.5,30.08,SW,232,9.0,12.0,52,0.00,,CLR,0.00,VWS V14.01,2013-03-31 16:07:00,
2013-03-31 12:12:00,73.7,54.5,30.08,WSW,247,2.0,13.0,51,0.00,,CLR,0.00,VWS V14.01,2013-03-31 16:12:00,
2013-03-31 12:17:00,73.5,53.7,30.08,SW,220,7.0,13.0,50,0.00,,CLR,0.00,VWS V14.01,2013-03-31 16:17:00,
2013-03-31 12:22:00,73.7,52.2,30.08,WSW,239,2.0,13.0,47,0.00,,CLR,0.00,VWS V14.01,2013-03-31 16:22:00,
2013-03-31 12:27:00,73.9,53.6,30.08,SSW,196,12.0,16.0,49,0.00,,CLR,0.00,VWS V14.01,2013-03-31 16:27:00,
2013-03-31 12:30:00,73.5,54.8,30.09,WSW,251,1.0,16.0,52,0.00,,CLR,0.00,VWS V14.01,2013-03-31 16:30:00,
2013-03-31 12:32:00,73.5,55.3,30.09,SSW,196,3.0,12.0,53,0.00,,CLR,0.00,VWS V14.01,2013-03-31 16:32:00,
2013-03-31 12:37:00,73.9,55.2,30.09,SW,229,6.0,16.0,52,0.00,,CLR,0.00,VWS V14.01,2013-03-31 16:37:00,
2013-03-31 12:42:00,73.9,55.2,30.09,SSW,209,8.0,17.0,52,0.00,,CLR,0.00,VWS V14.01,2013-03-31 16:42:00,
2013-03-31 12:47:00,74.7,55.9,30.08,ESE,107,0.0,17.0,52,0.00,,CLR,0.00,VWS V14.01,2013-03-31 16:47:00,
2013-03-31 12:52:00,75.6,55.7,30.08,WSW,237,0.0,17.0,50,0.00,,CLR,0.00,VWS V14.01,2013-03-31 16:52:00,
2013-03-31 12:57:00,75.3,55.9,30.08,WSW,244,0.0,17.0,51,0.00,,CLR,0.00,VWS V14.01,2013-03-31 16:57:00,
2013-03-31 13:00:00,74.2,54.9,30.08,SSW,206,0.0,12.0,51,0.00,,CLR,0.00,VWS V14.01,2013-03-31 17:00:00,
2013-03-31 13:02:00,75.1,55.2,30.08,South,176,3.0,14.0,50,0.00,,CLR,0.00,VWS V14.01,2013-03-31 17:02:00,
2013-03-31 13:07:00,75.6,55.1,30.08,South,179,2.0,14.0,49,0.00,,CLR,0.00,VWS V14.01,2013-03-31 17:07:00,
2013-03-31 13:12:00,76.0,54.3,30.08,SSW,203,3.0,14.0,47,0.00,,CLR,0.00,VWS V14.01,2013-03-31 17:12:00,
2013-03-31 13:17:00,76.0,53.8,30.07,ESE,113,0.0,14.0,46,0.00,,CLR,0.00,VWS V14.01,2013-03-31 17:17:00,
2013-03-31 13:22:00,75.6,55.1,30.07,SSW,193,5.0,14.0,49,0.00,,CLR,0.00,VWS V14.01,2013-03-31 17:22:00,
2013-03-31 13:27:00,75.3,55.9,30.07,SW,233,0.0,14.0,51,0.00,,CLR,0.00,VWS V14.01,2013-03-31 17:27:00,
2013-03-31 13:30:00,73.7,55.0,30.09,West,270,5.0,18.0,52,0.00,,CLR,0.00,VWS V14.01,2013-03-31 17:30:00,
2013-03-31 13:32:00,74.7,54.8,30.06,SSW,192,0.0,10.0,50,0.00,,CLR,0.00,VWS V14.01,2013-03-31 17:32:00,
2013-03-31 13:38:00,74.4,55.7,30.06,South,175,5.0,11.0,52,0.00,,CLR,0.00,VWS V14.01,2013-03-31 17:38:00,
2013-03-31 13:43:00,74.4,56.2,30.06,WSW,250,0.0,11.0,53,0.00,,CLR,0.00,VWS V14.01,2013-03-31 17:43:00,
2013-03-31 13:48:00,74.4,56.7,30.05,South,188,0.0,11.0,54,0.00,,CLR,0.00,VWS V14.01,2013-03-31 17:48:00,
2013-03-31 13:53:00,74.9,57.2,30.05,SSW,198,0.0,11.0,54,0.00,,CLR,0.00,VWS V14.01,2013-03-31 17:53:00,
2013-03-31 13:58:00,74.7,57.5,30.05,SSE,160,0.0,11.0,55,0.00,,CLR,0.00,VWS V14.01,2013-03-31 17:58:00,
2013-03-31 14:00:00,75.1,56.3,30.08,West,265,5.0,17.0,52,0.00,,CLR,0.00,VWS V14.01,2013-03-31 18:00:00,
2013-03-31 14:03:00,74.7,57.5,30.05,SSW,196,12.0,12.0,55,0.00,,CLR,0.00,VWS V14.01,2013-03-31 18:03:00,
2013-03-31 14:08:00,73.9,57.7,30.05,SSW,208,3.0,14.0,57,0.00,,CLR,0.00,VWS V14.01,2013-03-31 18:08:00,
2013-03-31 14:13:00,73.7,57.0,30.05,SSW,199,13.0,14.0,56,0.00,,CLR,0.00,VWS V14.01,2013-03-31 18:13:00,
2013-03-31 14:18:00,73.5,56.9,30.04,ESE,120,7.0,14.0,56,0.00,,CLR,0.00,VWS V14.01,2013-03-31 18:18:00,
2013-03-31 14:23:00,73.9,56.7,30.04,South,186,0.0,14.0,55,0.00,,CLR,0.00,VWS V14.01,2013-03-31 18:23:00,
2013-03-31 14:28:00,74.4,57.2,30.04,SW,223,6.0,16.0,55,0.00,,CLR,0.00,VWS V14.01,2013-03-31 18:28:00,
2013-03-31 14:30:00,74.9,54.5,30.06,SSW,193,5.0,14.0,49,0.00,,CLR,0.00,VWS V14.01,2013-03-31 18:30:00,
2013-03-31 14:33:00,74.4,57.2,30.03,South,169,0.0,8.0,55,0.00,,CLR,0.00,VWS V14.01,2013-03-31 18:33:00,
2013-03-31 14:38:00,74.6,57.4,30.03,South,181,0.0,13.0,55,0.00,,CLR,0.00,VWS V14.01,2013-03-31 18:38:00,
2013-03-31 14:43:00,75.1,57.3,30.03,SSW,199,0.0,13.0,54,0.00,,CLR,0.00,VWS V14.01,2013-03-31 18:43:00,
2013-03-31 14:48:00,75.4,57.1,30.02,SSW,206,3.0,14.0,53,0.00,,CLR,0.00,VWS V14.01,2013-03-31 18:48:00,
2013-03-31 14:53:00,75.8,57.5,30.02,SSW,200,0.0,14.0,53,0.00,,CLR,0.00,VWS V14.01,2013-03-31 18:53:00,
2013-03-31 14:58:00,75.4,57.6,30.02,ENE,78,0.0,14.0,54,0.00,,CLR,0.00,VWS V14.01,2013-03-31 18:58:00,
2013-03-31 15:00:00,74.7,57.5,30.05,SSW,208,0.0,11.0,55,0.00,,CLR,0.00,VWS V14.01,2013-03-31 19:00:00,
2013-03-31 15:03:00,74.6,57.4,30.01,SW,230,0.0,10.0,55,0.00,,CLR,0.00,VWS V14.01,2013-03-31 19:03:00,
2013-03-31 15:08:00,74.6,57.4,30.01,SW,216,6.0,10.0,55,0.00,,CLR,0.00,VWS V14.01,2013-03-31 19:08:00,
2013-03-31 15:13:00,74.0,56.3,30.01,WSW,257,3.0,14.0,54,0.00,,CLR,0.00,VWS V14.01,2013-03-31 19:13:00,
2013-03-31 15:18:00,73.5,56.4,30.01,SSW,203,3.0,14.0,55,0.00,,CLR,0.00,VWS V14.01,2013-03-31 19:18:00,
2013-03-31 15:23:00,73.5,56.9,30.01,SW,226,0.0,18.0,56,0.00,,CLR,0.00,VWS V14.01,2013-03-31 19:23:00,
2013-03-31 15:28:00,73.5,56.9,30.01,SSW,213,6.0,18.0,56,0.00,,CLR,0.00,VWS V14.01,2013-03-31 19:28:00,
2013-03-31 15:30:00,74.2,57.0,30.03,SSW,192,8.0,16.0,55,0.00,,CLR,0.00,VWS V14.01,2013-03-31 19:30:00,
2013-03-31 15:33:00,73.2,57.1,30.00,SW,215,0.0,11.0,57,0.00,,CLR,0.00,VWS V14.01,2013-03-31 19:33:00,
2013-03-31 15:39:00,73.7,57.5,30.00,South,189,5.0,11.0,57,0.00,,CLR,0.00,VWS V14.01,2013-03-31 19:39:00,
2013-03-31 15:44:00,73.9,57.7,30.00,WSW,239,0.0,16.0,57,0.00,,CLR,0.00,VWS V14.01,2013-03-31 19:44:00,
2013-03-31 15:49:00,74.2,58.0,30.00,SSE,162,10.0,16.0,57,0.00,,CLR,0.00,VWS V14.01,2013-03-31 19:49:00,
2013-03-31 15:54:00,74.9,57.7,30.00,SSE,157,11.0,16.0,55,0.00,,CLR,0.00,VWS V14.01,2013-03-31 19:54:00,
2013-03-31 15:59:00,75.1,57.8,30.00,South,185,0.0,16.0,55,0.00,,CLR,0.00,VWS V14.01,2013-03-31 19:59:00,
2013-03-31 16:00:00,74.9,57.2,30.01,SSW,203,5.0,16.0,54,0.00,,CLR,0.00,VWS V14.01,2013-03-31 20:00:00,
2013-03-31 16:04:00,74.9,57.7,29.99,SSW,206,2.0,13.0,55,0.00,,CLR,0.00,VWS V14.01,2013-03-31 20:04:00,
2013-03-31 16:09:00,74.2,57.5,29.99,SW,215,0.0,19.0,56,0.00,,CLR,0.00,VWS V14.01,2013-03-31 20:09:00,
2013-03-31 16:14:00,73.9,58.2,29.99,South,179,7.0,19.0,58,0.00,,CLR,0.00,VWS V14.01,2013-03-31 20:14:00,
2013-03-31 16:19:00,73.5,57.8,29.99,SE,128,0.0,19.0,58,0.00,,CLR,0.00,VWS V14.01,2013-03-31 20:19:00,
2013-03-31 16:24:00,73.5,57.8,29.99,SW,224,14.0,19.0,58,0.00,,CLR,0.00,VWS V14.01,2013-03-31 20:24:00,
2013-03-31 16:29:00,73.3,58.1,29.99,South,185,0.0,19.0,59,0.00,,CLR,0.00,VWS V14.01,2013-03-31 20:29:00,
2013-03-31 16:30:00,73.3,57.2,30.00,SSW,205,2.0,18.0,57,0.00,,CLR,0.00,VWS V14.01,2013-03-31 20:30:00,
2013-03-31 16:34:00,73.0,57.8,29.98,SSW,193,5.0,17.0,59,0.00,,CLR,0.00,VWS V14.01,2013-03-31 20:34:00,
2013-03-31 16:39:00,73.0,57.8,29.98,SSE,162,0.0,18.0,59,0.00,,CLR,0.00,VWS V14.01,2013-03-31 20:39:00,
2013-03-31 16:44:00,73.5,58.3,29.98,South,174,0.0,19.0,59,0.00,,CLR,0.00,VWS V14.01,2013-03-31 20:44:00,
2013-03-31 16:49:00,73.3,58.1,29.98,South,186,1.0,19.0,59,0.00,,CLR,0.00,VWS V14.01,2013-03-31 20:49:00,
2013-03-31 16:54:00,73.7,58.5,29.98,SSW,212,5.0,19.0,59,0.00,,CLR,0.00,VWS V14.01,2013-03-31 20:54:00,
2013-03-31 16:59:00,73.9,59.2,29.97,SSW,198,7.0,19.0,60,0.00,,CLR,0.00,VWS V14.01,2013-03-31 20:59:00,
2013-03-31 17:00:00,75.3,58.0,29.99,SSW,212,10.0,16.0,55,0.00,,CLR,0.00,VWS V14.01,2013-03-31 21:00:00,
2013-03-31 17:04:00,74.2,59.0,29.97,SSW,209,0.0,10.0,59,0.00,,CLR,0.00,VWS V14.01,2013-03-31 21:04:00,
2013-03-31 17:09:00,74.2,59.0,29.97,SW,215,8.0,10.0,59,0.00,,CLR,0.00,VWS V14.01,2013-03-31 21:09:00,
2013-03-31 17:14:00,73.7,59.0,29.97,South,188,9.0,17.0,60,0.00,,CLR,0.00,VWS V14.01,2013-03-31 21:14:00,
2013-03-31 17:19:00,73.5,59.2,29.97,SW,223,12.0,17.0,61,0.00,,CLR,0.00,VWS V14.01,2013-03-31 21:19:00,
2013-03-31 17:24:00,73.5,59.7,29.97,SW,222,0.0,17.0,62,0.00,,CLR,0.00,VWS V14.01,2013-03-31 21:24:00,
2013-03-31 17:30:00,73.3,59.5,29.97,West,261,3.0,17.0,62,0.00,,CLR,0.00,VWS V14.01,2013-03-31 21:30:00,
2013-03-31 17:34:00,73.0,59.7,29.97,SE,134,5.0,14.0,63,0.00,,CLR,0.00,VWS V14.01,2013-03-31 21:34:00,
2013-03-31 17:39:00,72.7,59.8,29.97,SSW,213,0.0,14.0,64,0.00,,CLR,0.00,VWS V14.01,2013-03-31 21:39:00,
2013-03-31 17:45:00,72.7,59.8,29.98,SSW,195,8.0,14.0,64,0.00,,CLR,0.00,VWS V14.01,2013-03-31 21:45:00,
2013-03-31 17:50:00,73.2,59.9,29.98,South,171,10.0,14.0,63,0.00,,CLR,0.00,VWS V14.01,2013-03-31 21:50:00,
2013-03-31 17:55:00,73.7,59.9,29.98,WSW,257,13.0,14.0,62,0.00,,CLR,0.00,VWS V14.01,2013-03-31 21:55:00,
2013-03-31 18:00:00,73.5,60.2,29.98,SSW,193,0.0,19.0,63,0.00,,CLR,0.00,VWS V14.01,2013-03-31 22:00:00,
2013-03-31 18:05:00,73.7,59.9,29.98,SSE,168,0.0,13.0,62,0.00,,CLR,0.00,VWS V14.01,2013-03-31 22:05:00,
2013-03-31 18:10:00,73.9,60.1,29.98,SSE,155,0.0,13.0,62,0.00,,CLR,0.00,VWS V14.01,2013-03-31 22:10:00,
2013-03-31 18:15:00,73.9,60.1,29.97,SSW,193,6.0,17.0,62,0.00,,CLR,0.00,VWS V14.01,2013-03-31 22:15:00,
2013-03-31 18:20:00,73.2,59.9,29.97,South,184,11.0,17.0,63,0.00,,CLR,0.00,VWS V14.01,2013-03-31 22:20:00,
2013-03-31 18:25:00,72.7,59.4,29.97,SW,230,6.0,19.0,63,0.00,,CLR,0.00,VWS V14.01,2013-03-31 22:25:00,
2013-03-31 18:30:00,72.5,59.6,29.96,SSW,200,3.0,19.0,64,0.00,,CLR,0.00,VWS V14.01,2013-03-31 22:30:00,
2013-03-31 18:35:00,72.3,59.5,29.96,SW,219,6.0,11.0,64,0.00,,CLR,0.00,VWS V14.01,2013-03-31 22:35:00,
2013-03-31 18:40:00,72.3,59.5,29.96,WNW,282,2.0,12.0,64,0.00,,CLR,0.00,VWS V14.01,2013-03-31 22:40:00,
2013-03-31 18:45:00,72.3,59.5,29.97,West,272,0.0,13.0,64,0.00,,CLR,0.00,VWS V14.01,2013-03-31 22:45:00,
2013-03-31 18:50:00,72.3,59.0,29.97,SW,224,2.0,18.0,63,0.00,,CLR,0.00,VWS V14.01,2013-03-31 22:50:00,
2013-03-31 18:55:00,72.1,59.3,29.97,SSW,200,7.0,18.0,64,0.00,,CLR,0.00,VWS V14.01,2013-03-31 22:55:00,
2013-03-31 19:00:00,72.0,59.2,29.97,SSW,199,7.0,18.0,64,0.00,,CLR,0.00,VWS V14.01,2013-03-31 23:00:00,
2013-03-31 19:05:00,71.6,59.2,29.97,SSW,212,1.0,11.0,65,0.00,,CLR,0.00,VWS V14.01,2013-03-31 23:05:00,
2013-03-31 19:10:00,71.5,59.1,29.97,SW,216,7.0,11.0,65,0.00,,CLR,0.00,VWS V14.01,2013-03-31 23:10:00,
2013-03-31 19:15:00,71.1,59.2,29.97,WSW,247,5.0,11.0,66,0.00,,CLR,0.00,VWS V14.01,2013-03-31 23:15:00,
2013-03-31 19:20:00,70.8,59.3,29.97,SSW,208,6.0,11.0,67,0.00,,CLR,0.00,VWS V14.01,2013-03-31 23:20:00,
2013-03-31 19:25:00,70.6,59.5,29.97,SSW,212,7.0,12.0,68,0.00,,CLR,0.00,VWS V14.01,2013-03-31 23:25:00,
2013-03-31 19:30:00,70.4,59.3,29.96,SSW,200,0.0,0.0,68,0.00,,CLR,0.00,VWS V14.01,2013-03-31 23:30:00,
2013-03-31 19:35:00,70.1,59.5,29.96,South,171,5.0,13.0,69,0.00,,CLR,0.00,VWS V14.01,2013-03-31 23:35:00,
2013-03-31 19:40:00,69.9,59.3,29.96,South,178,0.0,13.0,69,0.00,,CLR,0.00,VWS V14.01,2013-03-31 23:40:00,
2013-03-31 19:45:00,69.8,59.6,29.96,SW,229,9.0,14.0,70,0.00,,CLR,0.00,VWS V14.01,2013-03-31 23:45:00,
2013-03-31 19:50:00,69.6,59.4,29.96,SSW,212,5.0,14.0,70,0.00,,CLR,0.00,VWS V14.01,2013-03-31 23:50:00,
2013-03-31 19:55:00,69.4,59.2,29.96,SSW,208,5.0,14.0,70,0.00,,CLR,0.00,VWS V14.01,2013-03-31 23:55:00,
2013-03-31 20:00:00,69.4,59.2,29.96,South,186,1.0,1.0,70,0.00,,CLR,0.00,VWS V14.01,2013-04-01 00:00:00,
2013-03-31 20:05:00,69.4,59.2,29.96,SSW,213,0.0,11.0,70,0.00,,CLR,0.00,VWS V14.01,2013-04-01 00:05:00,
2013-03-31 20:10:00,69.3,59.1,29.96,SSW,213,0.0,11.0,70,0.00,,CLR,0.00,VWS V14.01,2013-04-01 00:10:00,
2013-03-31 20:15:00,69.3,59.1,29.95,SW,215,4.0,11.0,70,0.00,,CLR,0.00,VWS V14.01,2013-04-01 00:15:00,
2013-03-31 20:20:00,69.3,59.5,29.95,SW,220,4.0,11.0,71,0.00,,CLR,0.00,VWS V14.01,2013-04-01 00:20:00,
2013-03-31 20:26:00,69.1,59.3,29.95,SSW,192,0.0,11.0,71,0.00,,CLR,0.00,VWS V14.01,2013-04-01 00:26:00,
2013-03-31 20:30:00,70.4,59.3,29.96,SSW,200,0.0,12.0,68,0.00,,CLR,0.00,VWS V14.01,2013-04-01 00:30:00,
2013-03-31 20:31:00,69.1,59.3,29.95,West,260,0.0,4.0,71,0.00,,CLR,0.00,VWS V14.01,2013-04-01 00:31:00,
2013-03-31 20:36:00,69.1,59.3,29.95,SSW,205,0.0,6.0,71,0.00,,CLR,0.00,VWS V14.01,2013-04-01 00:36:00,
2013-03-31 20:41:00,68.9,59.1,29.95,South,191,0.0,7.0,71,0.00,,CLR,0.00,VWS V14.01,2013-04-01 00:41:00,
2013-03-31 20:46:00,68.9,59.1,29.95,SW,220,0.0,7.0,71,0.00,,CLR,0.00,VWS V14.01,2013-04-01 00:46:00,
2013-03-31 20:51:00,68.9,59.1,29.95,SSW,212,0.0,7.0,71,0.00,,CLR,0.00,VWS V14.01,2013-04-01 00:51:00,
2013-03-31 20:57:00,68.8,59.0,29.95,SW,222,0.0,11.0,71,0.00,,CLR,0.00,VWS V14.01,2013-04-01 00:57:00,
2013-03-31 21:00:00,69.4,59.2,29.96,South,185,0.0,14.0,70,0.00,,CLR,0.00,VWS V14.01,2013-04-01 01:00:00,
2013-03-31 21:02:00,68.9,59.1,29.95,South,189,0.0,9.0,71,0.00,,CLR,0.00,VWS V14.01,2013-04-01 01:02:00,
2013-03-31 21:07:00,68.9,59.1,29.95,SSW,203,0.0,9.0,71,0.00,,CLR,0.00,VWS V14.01,2013-04-01 01:07:00,
2013-03-31 21:12:00,68.9,59.1,29.95,SW,217,0.0,9.0,71,0.00,,CLR,0.00,VWS V14.01,2013-04-01 01:12:00,
2013-03-31 21:17:00,69.1,59.3,29.95,SW,222,0.0,9.0,71,0.00,,CLR,0.00,VWS V14.01,2013-04-01 01:17:00,
2013-03-31 21:22:00,68.9,60.7,29.95,SSW,200,0.0,9.0,75,0.00,,CLR,0.00,VWS V14.01,2013-04-01 01:22:00,
2013-03-31 21:27:00,68.6,61.1,29.95,SSW,200,0.0,9.0,77,0.00,,CLR,0.00,VWS V14.01,2013-04-01 01:27:00,
2013-03-31 21:30:00,69.1,59.3,29.95,WSW,251,1.0,11.0,71,0.00,,CLR,0.00,VWS V14.01,2013-04-01 01:30:00,
2013-03-31 21:32:00,68.1,61.0,29.95,SSW,202,2.0,6.0,78,0.00,,CLR,0.00,VWS V14.01,2013-04-01 01:32:00,
2013-03-31 21:37:00,67.9,60.8,29.95,SSW,202,0.0,6.0,78,0.00,,CLR,0.00,VWS V14.01,2013-04-01 01:37:00,
2013-03-31 21:43:00,67.8,60.7,29.95,SSW,202,0.0,6.0,78,0.00,,CLR,0.00,VWS V14.01,2013-04-01 01:43:00,
2013-03-31 21:48:00,67.8,60.7,29.96,SSW,202,0.0,6.0,78,0.00,,CLR,0.00,VWS V14.01,2013-04-01 01:48:00,
2013-03-31 21:53:00,67.8,60.3,29.96,SSW,202,0.0,6.0,77,0.00,,CLR,0.00,VWS V14.01,2013-04-01 01:53:00,
2013-03-31 21:58:00,67.6,59.8,29.96,SSW,202,0.0,6.0,76,0.00,,CLR,0.00,VWS V14.01,2013-04-01 01:58:00,
2013-03-31 22:00:00,68.9,59.1,29.95,SSW,212,0.0,11.0,71,0.00,,CLR,0.00,VWS V14.01,2013-04-01 02:00:00,
2013-03-31 22:03:00,67.9,59.7,29.96,SSW,209,0.0,0.0,75,0.00,,CLR,0.00,VWS V14.01,2013-04-01 02:03:00,
2013-03-31 22:08:00,68.4,59.8,29.96,SSW,205,0.0,11.0,74,0.00,,CLR,0.00,VWS V14.01,2013-04-01 02:08:00,
2013-03-31 22:13:00,68.8,59.8,29.96,SSW,209,0.0,11.0,73,0.00,,CLR,0.00,VWS V14.01,2013-04-01 02:13:00,
2013-03-31 22:18:00,68.9,59.9,29.96,SW,222,0.0,11.0,73,0.00,,CLR,0.00,VWS V14.01,2013-04-01 02:18:00,
2013-03-31 22:23:00,69.1,60.1,29.96,SW,227,1.0,11.0,73,0.00,,CLR,0.00,VWS V14.01,2013-04-01 02:23:00,
2013-03-31 22:28:00,69.1,60.1,29.96,SSW,192,0.0,11.0,73,0.00,,CLR,0.00,VWS V14.01,2013-04-01 02:28:00,
2013-03-31 22:30:00,68.3,60.8,29.95,SSW,202,0.0,9.0,77,0.00,,CLR,0.00,VWS V14.01,2013-04-01 02:30:00,
2013-03-31 22:33:00,69.1,60.1,29.96,South,191,2.0,8.0,73,0.00,,CLR,0.00,VWS V14.01,2013-04-01 02:33:00,
2013-03-31 22:38:00,69.1,60.1,29.96,SSW,206,0.0,8.0,73,0.00,,CLR,0.00,VWS V14.01,2013-04-01 02:38:00,
2013-03-31 22:43:00,68.9,59.9,29.96,SSW,206,0.0,8.0,73,0.00,,CLR,0.00,VWS V14.01,2013-04-01 02:43:00,
2013-03-31 22:48:00,68.9,60.3,29.97,SW,227,8.0,8.0,74,0.00,,CLR,0.00,VWS V14.01,2013-04-01 02:48:00,
2013-03-31 22:53:00,68.8,60.6,29.97,SW,219,0.0,9.0,75,0.00,,CLR,0.00,VWS V14.01,2013-04-01 02:53:00,
2013-03-31 22:58:00,68.6,60.7,29.97,SSW,203,0.0,9.0,76,0.00,,CLR,0.00,VWS V14.01,2013-04-01 02:58:00,
2013-03-31 23:00:00,67.8,60.0,29.96,SSW,205,0.0,6.0,76,0.00,,CLR,0.00,VWS V14.01,2013-04-01 03:00:00,
2013-03-31 23:03:00,68.4,60.9,29.97,South,184,0.0,7.0,77,0.00,,CLR,0.00,VWS V14.01,2013-04-01 03:03:00,
2013-03-31 23:08:00,68.3,61.2,29.97,South,185,0.0,7.0,78,0.00,,CLR,0.00,VWS V14.01,2013-04-01 03:08:00,
2013-03-31 23:13:00,68.3,61.5,29.97,South,176,0.0,7.0,79,0.00,,CLR,0.00,VWS V14.01,2013-04-01 03:13:00,
2013-03-31 23:18:00,68.1,61.3,29.97,SSW,198,1.0,7.0,79,0.00,,CLR,0.00,VWS V14.01,2013-04-01 03:18:00,
2013-03-31 23:23:00,67.9,61.5,29.97,SSW,205,0.0,7.0,80,0.00,,CLR,0.00,VWS V14.01,2013-04-01 03:23:00,
2013-03-31 23:28:00,67.8,61.4,29.97,SSW,199,6.0,7.0,80,0.00,,CLR,0.00,VWS V14.01,2013-04-01 03:28:00,
2013-03-31 23:30:00,69.1,60.1,29.96,SSW,202,0.0,11.0,73,0.00,,CLR,0.00,VWS V14.01,2013-04-01 03:30:00,
2013-03-31 23:34:00,67.8,61.8,29.97,SSW,206,8.0,8.0,81,0.00,,CLR,0.00,VWS V14.01,2013-04-01 03:34:00,
2013-03-31 23:39:00,67.6,61.6,29.97,SW,216,5.0,8.0,81,0.00,,CLR,0.00,VWS V14.01,2013-04-01 03:39:00,
2013-03-31 23:44:00,67.6,61.6,29.97,SSW,213,0.0,8.0,81,0.00,,CLR,0.00,VWS V14.01,2013-04-01 03:44:00,
2013-03-31 23:49:00,67.8,61.4,29.97,SW,217,1.0,8.0,80,0.00,,CLR,0.00,VWS V14.01,2013-04-01 03:49:00,
2013-03-31 23:54:00,67.8,61.4,29.97,SSW,203,6.0,10.0,80,0.00,,CLR,0.00,VWS V14.01,2013-04-01 03:54:00,
2013-03-31 23:59:00,67.9,61.5,29.97,SSW,200,0.0,10.0,80,0.00,,CLR,0.00,VWS V14.01,2013-04-01 03:59:00,